Time;durP1;ratioP1;P1;durP2;ratioP2;P2;SDS_P1;SDS_P2;PMS_P1;PMS_P2;Temp;Humidity;BMP_temperature;BMP_pressure;BME280_temperature;BME280_humidity;BME280_pressure;Samples;Min_cycle;Max_cycle;Signal;HPM_P1;HPM_P2
2022/06/02 00:01:27;;;;;;;7.47;1.45;;;40.60;14.00;;;;;;5051565;28;20013;-68
2022/06/02 00:04:18;;;;;;;7.05;1.38;;;40.40;14.30;;;;;;5052742;28;20107;-65
2022/06/02 00:07:46;;;;;;;2.28;1.00;;;40.30;14.00;;;;;;5052423;28;20064;-65
2022/06/02 00:10:51;;;;;;;11.68;1.20;;;40.10;14.20;;;;;;4997642;28;20493;-66
2022/06/02 00:13:29;;;;;;;14.73;1.48;;;40.20;14.00;;;;;;5012027;28;20072;-66
2022/06/02 00:16:01;;;;;;;10.20;1.05;;;40.20;13.80;;;;;;5015087;28;20134;-65
2022/06/02 00:18:40;;;;;;;7.53;1.30;;;40.30;14.20;;;;;;5009880;28;20414;-68
2022/06/02 00:21:19;;;;;;;6.13;1.25;;;40.30;14.00;;;;;;5009147;28;20034;-65
2022/06/02 00:23:58;;;;;;;7.43;1.20;;;40.20;13.80;;;;;;4993446;28;20472;-68
2022/06/02 00:26:44;;;;;;;9.20;1.30;;;40.00;13.60;;;;;;5012740;28;20101;-67
2022/06/02 00:29:19;;;;;;;12.43;1.25;;;40.10;13.90;;;;;;5009970;28;20104;-65
2022/06/02 00:32:13;;;;;;;9.18;1.52;;;40.00;14.10;;;;;;5011405;28;20033;-69
2022/06/02 00:35:00;;;;;;;9.77;1.20;;;40.00;14.40;;;;;;4993120;28;20034;-67
2022/06/02 00:37:50;;;;;;;14.48;2.25;;;40.00;14.30;;;;;;4992911;28;20068;-67
2022/06/02 00:40:23;;;;;;;9.18;1.45;;;39.90;13.90;;;;;;4992163;28;20836;-67
2022/06/02 00:43:10;;;;;;;12.93;1.20;;;39.80;14.20;;;;;;5009051;28;20130;-66
2022/06/02 00:45:42;;;;;;;12.07;1.02;;;39.80;13.80;;;;;;5008538;28;20033;-66
2022/06/02 00:48:51;;;;;;;8.63;1.58;;;39.60;13.90;;;;;;5058711;28;20029;-65
2022/06/02 00:51:27;;;;;;;6.65;1.45;;;39.50;14.00;;;;;;5049441;28;20021;-65
2022/06/02 01:00:11;;;;;;;6.43;1.48;;;39.20;14.30;;;;;;5051582;28;20036;-64
2022/06/02 01:03:07;;;;;;;10.70;1.63;;;39.20;14.50;;;;;;5046936;28;20056;-65
2022/06/02 01:05:56;;;;;;;7.45;1.60;;;39.00;14.60;;;;;;5055758;28;20386;-66
2022/06/02 01:08:47;;;;;;;10.13;1.52;;;39.10;15.00;;;;;;5048382;28;20037;-64
2022/06/02 01:11:22;;;;;;;11.85;1.70;;;39.00;14.30;;;;;;5063692;28;20025;-65
2022/06/02 01:13:51;;;;;;;15.52;2.13;;;38.90;14.30;;;;;;5047492;28;20472;-66
2022/06/02 01:16:44;;;;;;;8.32;1.52;;;38.80;14.60;;;;;;5048198;28;20411;-65
2022/06/02 01:19:21;;;;;;;7.72;1.40;;;38.60;14.50;;;;;;5047927;28;20033;-63
2022/06/02 01:22:09;;;;;;;6.82;1.48;;;38.50;14.30;;;;;;5047255;28;20036;-65
2022/06/02 01:24:52;;;;;;;6.75;1.50;;;38.40;14.20;;;;;;5049207;28;20033;-65
2022/06/02 01:27:37;;;;;;;7.80;1.58;;;38.30;14.70;;;;;;5046262;28;20491;-64
2022/06/02 01:30:31;;;;;;;8.75;1.80;;;38.20;14.60;;;;;;5046857;28;20044;-64
2022/06/02 01:33:42;;;;;;;9.80;1.95;;;38.10;14.50;;;;;;5048581;28;20505;-65
2022/06/02 01:36:18;;;;;;;8.30;1.23;;;37.90;14.60;;;;;;5018526;28;20462;-65
2022/06/02 01:38:59;;;;;;;9.32;1.65;;;37.80;14.50;;;;;;5065073;28;20033;-66
2022/06/02 01:41:53;;;;;;;9.50;1.55;;;37.70;14.70;;;;;;5062641;28;20024;-65
2022/06/02 01:45:07;;;;;;;4.97;1.50;;;37.60;14.30;;;;;;5048299;28;20017;-66
2022/06/02 01:47:42;;;;;;;7.13;1.52;;;37.60;14.40;;;;;;5041308;28;20076;-66
2022/06/02 01:50:35;;;;;;;8.82;1.40;;;37.50;14.60;;;;;;5046656;28;20029;-66
2022/06/02 01:53:26;;;;;;;11.68;1.92;;;37.40;14.30;;;;;;5062739;28;20475;-65
2022/06/02 01:56:19;;;;;;;12.10;1.15;;;37.20;14.40;;;;;;5046662;28;20544;-66
2022/06/02 01:58:58;;;;;;;6.80;1.35;;;37.10;14.20;;;;;;5049513;28;20112;-65
2022/06/02 02:01:39;;;;;;;7.72;1.45;;;37.00;14.10;;;;;;5048286;28;20047;-65
2022/06/02 02:04:13;;;;;;;14.30;1.75;;;36.90;14.30;;;;;;5061623;28;20185;-67
2022/06/02 02:07:11;;;;;;;7.20;1.55;;;36.80;14.30;;;;;;5047129;28;20048;-65
2022/06/02 02:10:28;;;;;;;9.38;1.50;;;36.70;14.50;;;;;;5046605;28;20041;-68
2022/06/02 02:12:57;;;;;;;10.83;1.90;;;36.50;14.50;;;;;;5035041;28;20098;-65
2022/06/02 02:15:55;;;;;;;6.90;2.47;;;36.40;15.00;;;;;;5047719;28;20047;-64
2022/06/02 02:18:40;;;;;;;11.27;2.05;;;36.30;15.10;;;;;;5047049;28;20523;-69
2022/06/02 02:21:39;;;;;;;9.38;2.30;;;36.10;15.60;;;;;;5045464;28;20114;-69
2022/06/02 02:24:39;;;;;;;16.48;2.63;;;36.10;14.90;;;;;;5046570;28;20342;-68
2022/06/02 02:27:32;;;;;;;7.82;2.78;;;35.90;15.30;;;;;;5046642;28;20112;-68
2022/06/02 02:30:09;;;;;;;7.88;3.30;;;35.90;15.10;;;;;;5006247;28;20090;-73
2022/06/02 02:32:55;;;;;;;14.75;3.95;;;35.80;15.00;;;;;;4990885;28;20165;-67
2022/06/02 02:35:34;;;;;;;16.65;3.45;;;35.70;15.00;;;;;;4991495;28;20049;-65
2022/06/02 02:38:39;;;;;;;16.20;4.03;;;35.60;15.00;;;;;;4992696;28;20055;-66
2022/06/02 02:41:11;;;;;;;14.07;3.40;;;35.40;15.10;;;;;;4981931;28;20082;-68
2022/06/02 02:43:57;;;;;;;10.02;3.20;;;35.40;15.30;;;;;;4971361;28;20062;-72
2022/06/02 02:46:36;;;;;;;10.82;3.60;;;35.20;15.40;;;;;;5004830;28;20120;-64
2022/06/02 02:49:14;;;;;;;9.90;3.42;;;35.10;14.90;;;;;;5005487;28;20045;-65
2022/06/02 02:52:21;;;;;;;11.55;3.65;;;35.00;15.00;;;;;;5005552;28;20046;-65
2022/06/02 02:55:13;;;;;;;12.15;3.67;;;34.80;15.20;;;;;;4946379;28;20071;-60
2022/06/02 02:58:02;;;;;;;12.85;3.70;;;34.70;15.70;;;;;;4947779;29;20046;-63
2022/06/02 03:01:13;;;;;;;16.48;3.95;;;34.50;15.80;;;;;;4949118;29;20111;-65
2022/06/02 03:04:06;;;;;;;17.30;4.25;;;34.40;16.00;;;;;;4909486;29;20049;-63
2022/06/02 03:06:38;;;;;;;15.98;4.18;;;34.30;16.40;;;;;;4910470;29;20101;-65
2022/06/02 03:09:14;;;;;;;14.13;4.22;;;34.10;16.60;;;;;;4933782;29;20072;-63
2022/06/02 03:11:53;;;;;;;22.77;4.10;;;34.00;17.00;;;;;;4932290;29;20060;-64
2022/06/02 03:14:52;;;;;;;15.77;4.55;;;33.90;16.60;;;;;;4934297;29;20445;-64
2022/06/02 03:17:28;;;;;;;13.20;3.72;;;33.80;16.90;;;;;;4932781;29;20055;-63
2022/06/02 03:19:57;;;;;;;23.77;4.57;;;33.60;16.90;;;;;;4949056;29;20435;-66
2022/06/02 03:22:38;;;;;;;18.60;4.95;;;33.50;17.60;;;;;;4933080;29;20487;-65
2022/06/02 03:25:18;;;;;;;24.17;5.15;;;33.40;17.60;;;;;;4949197;28;20094;-65
2022/06/02 03:28:16;;;;;;;21.02;5.60;;;33.30;17.80;;;;;;4932051;29;20423;-64
2022/06/02 03:30:57;;;;;;;27.20;5.60;;;33.20;18.00;;;;;;4942429;28;20064;-64
2022/06/02 03:33:42;;;;;;;40.00;6.75;;;33.00;18.20;;;;;;4979530;28;20082;-65
2022/06/02 03:36:40;;;;;;;43.60;7.38;;;32.90;18.60;;;;;;5052019;28;20052;-65
2022/06/02 03:39:32;;;;;;;35.10;6.50;;;32.80;19.80;;;;;;5051642;28;20064;-65
2022/06/02 03:42:04;;;;;;;31.40;5.80;;;32.60;20.00;;;;;;5055272;28;20077;-67
2022/06/02 03:44:41;;;;;;;37.90;6.80;;;32.50;20.40;;;;;;5051698;28;20489;-65
2022/06/02 03:47:19;;;;;;;29.98;5.97;;;32.40;20.50;;;;;;5052259;28;20523;-64
2022/06/02 03:50:12;;;;;;;43.70;6.28;;;32.30;21.00;;;;;;5052501;28;20078;-65
2022/06/02 03:52:49;;;;;;;33.10;6.15;;;32.20;20.90;;;;;;5050788;28;20068;-66
2022/06/02 03:55:18;;;;;;;30.25;6.75;;;32.10;20.80;;;;;;5038544;28;20115;-65
2022/06/02 03:57:53;;;;;;;33.15;6.05;;;32.10;20.90;;;;;;5056505;28;20067;-65
2022/06/02 04:00:36;;;;;;;27.33;6.35;;;31.90;21.00;;;;;;5057104;28;20063;-65
2022/06/02 04:03:07;;;;;;;37.28;5.60;;;31.90;21.40;;;;;;5033383;28;20049;-64
2022/06/02 04:06:09;;;;;;;38.65;7.13;;;31.80;21.20;;;;;;5049671;28;20095;-63
2022/06/02 04:08:44;;;;;;;36.58;6.10;;;31.80;21.50;;;;;;4990389;28;20093;-64
2022/06/02 04:14:57;;;;;;;27.80;5.72;;;31.60;21.50;;;;;;4985744;28;20098;-66
2022/06/02 04:17:46;;;;;;;36.92;5.93;;;31.60;21.80;;;;;;4992528;28;20052;-64
2022/06/02 04:20:36;;;;;;;21.23;4.78;;;31.50;21.70;;;;;;4976945;28;20178;-65
2022/06/02 04:23:14;;;;;;;31.25;5.03;;;31.40;21.80;;;;;;4960781;28;20056;-65
2022/06/02 04:25:46;;;;;;;16.45;4.45;;;31.30;21.20;;;;;;4990193;28;20584;-65
2022/06/02 04:28:45;;;;;;;24.45;5.35;;;31.30;21.40;;;;;;4974445;28;20509;-64
2022/06/02 04:31:44;;;;;;;28.75;5.88;;;31.20;21.30;;;;;;4977504;28;20046;-65
2022/06/02 04:34:32;;;;;;;36.08;6.93;;;31.10;21.10;;;;;;4989194;28;20053;-64
2022/06/02 04:37:22;;;;;;;30.75;6.50;;;31.10;21.50;;;;;;4979785;28;20080;-63
2022/06/02 04:40:14;;;;;;;30.92;7.35;;;31.00;21.70;;;;;;4990630;28;20472;-65
2022/06/02 04:43:07;;;;;;;37.83;7.85;;;31.00;21.80;;;;;;4973056;28;20077;-65
2022/06/02 04:45:55;;;;;;;52.35;12.00;;;30.90;21.90;;;;;;5044989;28;20424;-64
2022/06/02 04:48:41;;;;;;;54.95;12.63;;;30.80;21.80;;;;;;5049863;28;20056;-64
2022/06/02 04:51:23;;;;;;;49.85;11.80;;;30.70;22.80;;;;;;5050399;28;20100;-67
2022/06/02 04:53:49;;;;;;;54.97;11.55;;;30.60;23.10;;;;;;5051330;28;20064;-64
2022/06/02 04:56:46;;;;;;;54.90;9.50;;;30.60;22.80;;;;;;5066434;28;20048;-65
2022/06/02 04:59:38;;;;;;;47.63;9.88;;;30.60;22.70;;;;;;5032518;28;20077;-65
2022/06/02 05:02:31;;;;;;;38.30;9.10;;;30.60;22.30;;;;;;5051177;28;20538;-66
2022/06/02 05:05:14;;;;;;;37.03;9.23;;;30.60;22.50;;;;;;5048771;28;20410;-66
2022/06/02 05:08:12;;;;;;;36.60;8.13;;;30.60;22.20;;;;;;5049186;28;20074;-64
2022/06/02 05:11:03;;;;;;;29.33;8.13;;;30.60;22.40;;;;;;5050444;28;20058;-65
2022/06/02 05:13:55;;;;;;;37.03;8.52;;;30.60;22.50;;;;;;5051571;28;20136;-66
2022/06/02 05:16:24;;;;;;;37.65;9.70;;;30.50;22.50;;;;;;5051292;28;20075;-66
2022/06/02 05:19:12;;;;;;;37.78;9.55;;;30.40;22.50;;;;;;5049631;28;20080;-65
2022/06/02 05:21:53;;;;;;;43.22;8.27;;;30.40;22.70;;;;;;5048263;28;20080;-65
2022/06/02 05:24:29;;;;;;;44.20;9.57;;;30.40;23.30;;;;;;5065346;28;20118;-67
2022/06/02 05:27:04;;;;;;;37.72;8.60;;;30.40;23.10;;;;;;5048608;28;20151;-67
2022/06/02 05:29:54;;;;;;;43.87;7.47;;;30.40;22.50;;;;;;5048535;28;20521;-68
2022/06/02 05:32:40;;;;;;;39.35;8.70;;;30.40;22.30;;;;;;5048460;28;20520;-67
2022/06/02 05:35:30;;;;;;;49.70;8.30;;;30.30;23.10;;;;;;5037168;28;20065;-67
2022/06/02 05:38:26;;;;;;;82.10;11.38;;;30.30;23.40;;;;;;5048620;28;20136;-67
2022/06/02 05:41:26;;;;;;;77.18;10.98;;;30.20;23.50;;;;;;4991520;28;20763;-68
2022/06/02 05:44:01;;;;;;;59.70;10.00;;;30.20;23.40;;;;;;5006902;28;20057;-68
2022/06/02 05:46:52;;;;;;;44.63;10.63;;;30.10;23.70;;;;;;5007349;28;20075;-68
2022/06/02 05:49:33;;;;;;;38.83;9.77;;;30.10;23.80;;;;;;5007471;28;20164;-68
2022/06/02 05:52:22;;;;;;;66.15;11.18;;;30.00;23.60;;;;;;5007418;28;20526;-68
2022/06/02 05:55:24;;;;;;;69.13;11.75;;;30.00;24.00;;;;;;5005712;28;20087;-68
2022/06/02 05:58:13;;;;;;;61.50;12.07;;;29.90;23.60;;;;;;5006800;28;20864;-68
2022/06/02 06:01:03;;;;;;;75.38;13.98;;;29.90;23.60;;;;;;4990142;28;20190;-71
2022/06/02 06:04:03;;;;;;;81.85;12.95;;;29.90;23.50;;;;;;5006567;28;20063;-69
2022/06/02 06:06:50;;;;;;;64.68;13.05;;;29.90;23.60;;;;;;5006485;28;20129;-68
2022/06/02 06:09:45;;;;;;;62.60;12.05;;;29.80;23.50;;;;;;5007414;28;20078;-68
2022/06/02 06:12:55;;;;;;;57.55;11.75;;;29.80;23.00;;;;;;5006383;28;20067;-68
2022/06/02 06:15:49;;;;;;;64.43;11.57;;;29.80;22.90;;;;;;4967861;28;20092;-67
2022/06/02 06:18:30;;;;;;;65.80;12.63;;;29.70;23.00;;;;;;4993808;28;20103;-69
2022/06/02 06:21:13;;;;;;;62.95;12.40;;;29.60;23.10;;;;;;5006542;28;20093;-69
2022/06/02 06:24:02;;;;;;;56.42;12.32;;;29.60;23.20;;;;;;4975737;28;20111;-67
2022/06/02 06:26:31;;;;;;;51.40;10.52;;;29.60;23.30;;;;;;4987042;28;20546;-68
2022/06/02 06:29:16;;;;;;;68.75;13.30;;;29.60;23.40;;;;;;5006111;28;20069;-67
2022/06/02 06:31:53;;;;;;;69.72;12.50;;;29.50;23.40;;;;;;5005474;28;20112;-68
2022/06/02 06:34:44;;;;;;;70.90;12.10;;;29.50;23.40;;;;;;5006607;28;20502;-67
2022/06/02 06:37:28;;;;;;;56.88;12.25;;;29.50;24.00;;;;;;5006178;28;20102;-68
2022/06/02 06:40:27;;;;;;;65.50;12.25;;;29.50;24.30;;;;;;5007117;28;20167;-69
2022/06/02 06:43:08;;;;;;;81.38;13.85;;;29.40;24.80;;;;;;5005829;28;20065;-68
2022/06/02 06:45:44;;;;;;;56.45;11.93;;;29.40;24.60;;;;;;5006174;28;20595;-69
2022/06/02 06:48:43;;;;;;;60.13;11.90;;;29.30;24.70;;;;;;5010013;28;20074;-69
2022/06/02 06:51:21;;;;;;;53.67;10.98;;;29.30;24.60;;;;;;4979531;28;20090;-69
2022/06/02 06:54:02;;;;;;;51.28;12.32;;;29.20;25.00;;;;;;5053467;28;20060;-69
2022/06/02 06:56:48;;;;;;;64.80;13.30;;;29.20;25.00;;;;;;5046886;28;20062;-69
2022/06/02 06:59:36;;;;;;;63.83;12.63;;;29.10;24.90;;;;;;5048357;28;20087;-69
2022/06/02 07:02:27;;;;;;;80.80;12.73;;;29.10;25.30;;;;;;5049966;28;20064;-70
2022/06/02 07:05:13;;;;;;;60.50;11.80;;;29.10;25.50;;;;;;5046479;28;20084;-69
2022/06/02 07:08:03;;;;;;;53.53;11.95;;;29.00;25.90;;;;;;5050372;28;20069;-70
2022/06/02 07:10:49;;;;;;;50.15;11.60;;;29.00;25.80;;;;;;5036458;28;20069;-69
2022/06/02 07:13:49;;;;;;;70.63;12.32;;;28.90;25.60;;;;;;5051847;28;20424;-69
2022/06/02 07:16:40;;;;;;;57.80;10.93;;;28.80;25.80;;;;;;4975523;28;20582;-69
2022/06/02 07:19:32;;;;;;;46.65;11.98;;;28.80;26.30;;;;;;4978538;28;20093;-71
2022/06/02 07:22:36;;;;;;;46.45;9.90;;;28.80;26.50;;;;;;4971208;28;20300;-68
2022/06/02 07:25:16;;;;;;;42.63;10.02;;;28.70;26.50;;;;;;4973208;28;20082;-68
2022/06/02 07:28:24;;;;;;;42.80;9.32;;;28.60;26.50;;;;;;4988301;28;20137;-69
2022/06/02 07:31:14;;;;;;;53.10;10.85;;;28.60;26.90;;;;;;4987240;28;20078;-70
2022/06/02 07:34:04;;;;;;;54.28;10.23;;;28.50;26.80;;;;;;4975511;28;20100;-70
2022/06/02 07:36:48;;;;;;;41.80;10.43;;;28.50;27.00;;;;;;4973228;28;20068;-70
2022/06/02 07:39:39;;;;;;;39.53;9.07;;;28.40;26.80;;;;;;4976786;28;20205;-69
2022/06/02 07:42:21;;;;;;;43.30;8.60;;;28.30;27.00;;;;;;4975192;28;20071;-70
2022/06/02 07:45:08;;;;;;;38.72;8.75;;;28.20;27.30;;;;;;4992307;28;20512;-70
2022/06/02 07:47:47;;;;;;;33.83;7.82;;;28.20;27.50;;;;;;4972648;28;20114;-69
2022/06/02 07:50:34;;;;;;;38.80;8.95;;;28.10;27.60;;;;;;4976179;28;20140;-69
2022/06/02 07:53:19;;;;;;;36.45;7.45;;;28.10;27.90;;;;;;5024189;28;20461;-71
2022/06/02 07:56:08;;;;;;;30.95;7.35;;;28.20;27.80;;;;;;5048668;28;20168;-70
2022/06/02 07:59:00;;;;;;;37.75;7.38;;;28.20;27.80;;;;;;5051922;28;20072;-71
2022/06/02 08:02:00;;;;;;;32.15;6.95;;;28.20;28.00;;;;;;5052939;28;20086;-70
2022/06/02 08:05:08;;;;;;;42.13;8.15;;;28.20;28.20;;;;;;5049202;28;20074;-69
2022/06/02 08:07:41;;;;;;;43.58;8.68;;;28.10;28.40;;;;;;5032299;28;20148;-68
2022/06/02 08:10:25;;;;;;;36.30;8.70;;;28.10;28.50;;;;;;5053396;28;20581;-68
2022/06/02 08:12:57;;;;;;;44.38;9.80;;;28.10;28.70;;;;;;5049640;28;20078;-70
2022/06/02 08:15:54;;;;;;;43.65;9.13;;;28.00;28.90;;;;;;5049339;28;20081;-70
2022/06/02 08:18:27;;;;;;;42.85;8.95;;;28.00;28.90;;;;;;5049176;28;20067;-69
2022/06/02 08:21:29;;;;;;;49.65;9.20;;;28.00;28.90;;;;;;5051218;28;20184;-68
2022/06/02 08:24:33;;;;;;;53.85;9.52;;;28.00;29.20;;;;;;5067426;28;20069;-68
2022/06/02 08:27:32;;;;;;;41.28;9.18;;;28.00;29.00;;;;;;5033202;28;20070;-69
2022/06/02 08:30:23;;;;;;;44.97;9.60;;;28.00;29.20;;;;;;5026519;28;20079;-71
2022/06/02 08:33:07;;;;;;;42.15;9.32;;;27.90;29.40;;;;;;5049408;28;20077;-70
2022/06/02 08:35:44;;;;;;;46.53;9.70;;;27.90;29.40;;;;;;5032304;28;20081;-69
2022/06/02 08:38:19;;;;;;;44.42;10.00;;;27.80;29.50;;;;;;5038508;28;20437;-68
2022/06/02 08:41:33;;;;;;;35.35;8.85;;;27.80;29.60;;;;;;5050829;28;20092;-67
2022/06/02 08:44:31;;;;;;;40.15;8.95;;;27.80;29.60;;;;;;5048893;28;20077;-69
2022/06/02 08:47:12;;;;;;;46.92;9.27;;;27.80;29.70;;;;;;5072421;28;20135;-70
2022/06/02 08:50:10;;;;;;;46.88;9.48;;;27.70;29.90;;;;;;5070401;28;20117;-70
2022/06/02 08:53:14;;;;;;;42.80;10.95;;;27.60;29.90;;;;;;5067332;28;20520;-70
2022/06/02 08:55:59;;;;;;;53.38;10.95;;;27.50;29.60;;;;;;5051301;28;20151;-69
2022/06/02 08:58:58;;;;;;;47.42;10.40;;;27.40;29.60;;;;;;5049339;28;20093;-69
2022/06/02 09:01:27;;;;;;;58.28;11.88;;;27.40;29.50;;;;;;5048937;28;20564;-68
2022/06/02 09:04:31;;;;;;;56.08;11.85;;;27.30;29.50;;;;;;5049194;28;20514;-70
2022/06/02 09:07:13;;;;;;;55.75;11.95;;;27.40;29.50;;;;;;5050487;28;20116;-68
2022/06/02 09:09:58;;;;;;;50.75;11.45;;;27.40;29.00;;;;;;5047923;28;20071;-69
2022/06/02 09:12:33;;;;;;;46.05;11.18;;;27.40;28.60;;;;;;5049650;28;20070;-68
2022/06/02 09:15:37;;;;;;;40.30;11.37;;;27.30;28.60;;;;;;5050812;28;20071;-68
2022/06/02 09:18:33;;;;;;;43.95;11.25;;;27.30;28.60;;;;;;5049265;28;20470;-68
2022/06/02 09:21:14;;;;;;;45.03;11.25;;;27.30;29.20;;;;;;5046922;28;20139;-69
2022/06/02 09:23:46;;;;;;;55.10;12.38;;;27.20;30.00;;;;;;5049703;28;20078;-69
2022/06/02 09:26:54;;;;;;;53.63;12.20;;;27.10;29.20;;;;;;5047851;28;20405;-68
2022/06/02 09:29:32;;;;;;;58.67;13.07;;;27.10;29.30;;;;;;5049580;28;20076;-69
2022/06/02 09:32:24;;;;;;;48.97;14.85;;;27.00;29.80;;;;;;5048123;28;20085;-70
2022/06/02 09:35:31;;;;;;;49.85;14.60;;;27.00;30.00;;;;;;5064499;28;20161;-69
2022/06/02 09:38:19;;;;;;;46.75;13.85;;;26.90;30.00;;;;;;5048019;28;20114;-69
2022/06/02 09:40:47;;;;;;;43.50;11.90;;;26.90;30.70;;;;;;5058105;28;20088;-68
2022/06/02 09:44:10;;;;;;;46.40;10.98;;;26.80;30.80;;;;;;5048610;28;20067;-69
2022/06/02 09:46:52;;;;;;;46.40;11.27;;;26.60;31.30;;;;;;5035878;28;20079;-69
2022/06/02 09:49:38;;;;;;;45.35;9.60;;;26.60;32.10;;;;;;5049050;28;20075;-69
2022/06/02 09:52:20;;;;;;;35.35;9.00;;;26.60;32.00;;;;;;5062637;28;20078;-68
2022/06/02 09:55:02;;;;;;;34.88;8.98;;;26.50;33.10;;;;;;5050184;28;20147;-68
2022/06/02 09:57:56;;;;;;;42.17;10.05;;;26.50;34.10;;;;;;5049203;28;20082;-69
2022/06/02 10:00:25;;;;;;;41.20;11.90;;;26.50;34.50;;;;;;5036585;28;20596;-69
2022/06/02 10:03:30;;;;;;;36.15;12.30;;;26.40;35.00;;;;;;5048499;28;20064;-69
2022/06/02 10:06:15;;;;;;;48.97;12.20;;;26.40;35.20;;;;;;5047103;28;20461;-69
2022/06/02 10:09:19;;;;;;;47.75;12.05;;;26.30;35.50;;;;;;5049246;28;20577;-69
2022/06/02 10:15:17;;;;;;;33.63;10.27;;;26.20;35.50;;;;;;5048984;28;20106;-70
2022/06/02 10:18:11;;;;;;;38.33;10.63;;;26.20;35.20;;;;;;5047492;28;20089;-70
2022/06/02 10:20:53;;;;;;;39.55;10.43;;;26.20;35.10;;;;;;5047365;28;20572;-70
2022/06/02 10:23:38;;;;;;;47.63;11.40;;;26.20;35.20;;;;;;5049978;28;20437;-69
2022/06/02 10:26:23;;;;;;;37.58;11.93;;;26.20;35.30;;;;;;5048307;28;20150;-69
2022/06/02 10:29:23;;;;;;;38.95;10.48;;;26.10;35.20;;;;;;5048282;28;20079;-69
2022/06/02 10:32:04;;;;;;;64.55;13.65;;;26.00;35.30;;;;;;5047531;28;20076;-69
2022/06/02 10:34:34;;;;;;;53.08;14.13;;;26.00;35.60;;;;;;5049105;28;20076;-69
2022/06/02 10:37:19;;;;;;;57.17;15.85;;;26.00;36.20;;;;;;5047563;28;20075;-69
2022/06/02 10:40:16;;;;;;;51.33;15.57;;;26.00;36.70;;;;;;5047448;28;20627;-69
2022/06/02 10:42:42;;;;;;;48.00;14.15;;;26.00;37.40;;;;;;5046946;28;20073;-70
2022/06/02 10:45:46;;;;;;;51.47;14.80;;;26.00;37.50;;;;;;5047044;28;20073;-69
2022/06/02 10:48:31;;;;;;;46.85;14.68;;;25.90;37.70;;;;;;5048562;28;20092;-70
2022/06/02 10:51:34;;;;;;;59.15;18.25;;;25.80;38.30;;;;;;5048023;28;20072;-70
2022/06/02 10:54:40;;;;;;;61.13;17.63;;;25.80;38.20;;;;;;5047987;28;20159;-71
2022/06/02 10:57:36;;;;;;;57.17;16.65;;;25.70;38.50;;;;;;5046145;28;20133;-70
2022/06/02 11:00:13;;;;;;;63.47;18.10;;;25.60;38.20;;;;;;5047240;28;20138;-70
2022/06/02 11:03:26;;;;;;;79.38;17.83;;;25.50;38.20;;;;;;5047982;28;20419;-70
2022/06/02 11:06:29;;;;;;;78.55;17.45;;;25.40;37.90;;;;;;5050652;28;20103;-70
2022/06/02 11:09:43;;;;;;;76.75;19.30;;;25.40;37.70;;;;;;5048071;28;20071;-70
2022/06/02 11:12:53;;;;;;;81.88;23.83;;;25.30;38.20;;;;;;5043412;28;20084;-70
2022/06/02 11:16:10;;;;;;;87.63;29.17;;;25.20;38.70;;;;;;5048133;28;20538;-69
2022/06/02 11:18:45;;;;;;;102.57;34.40;;;25.20;40.00;;;;;;5049435;28;20199;-70
2022/06/02 11:21:24;;;;;;;84.28;34.10;;;25.20;41.40;;;;;;5046352;28;20080;-69
2022/06/02 11:24:36;;;;;;;103.22;32.58;;;25.10;42.50;;;;;;5047531;28;20759;-70
2022/06/02 11:27:24;;;;;;;66.45;25.95;;;25.10;43.50;;;;;;5046879;28;20499;-69
2022/06/02 11:30:21;;;;;;;60.58;19.92;;;25.10;43.80;;;;;;5046728;28;20091;-69
2022/06/02 11:33:14;;;;;;;68.95;22.25;;;25.10;45.10;;;;;;5047094;28;20104;-69
2022/06/02 11:36:02;;;;;;;71.72;20.58;;;25.10;45.50;;;;;;5046534;28;20561;-69
2022/06/02 11:38:59;;;;;;;69.78;18.15;;;25.10;45.90;;;;;;5047844;28;20171;-69
2022/06/02 11:42:03;;;;;;;62.25;16.58;;;25.00;46.30;;;;;;5047301;28;20157;-69
2022/06/02 11:44:46;;;;;;;62.80;15.25;;;24.90;46.60;;;;;;5063006;28;20554;-69
2022/06/02 11:47:28;;;;;;;56.35;14.20;;;24.90;46.70;;;;;;5047198;28;20171;-69
2022/06/02 11:50:17;;;;;;;59.40;14.20;;;24.90;46.90;;;;;;5046708;28;20122;-69
2022/06/02 11:53:04;;;;;;;47.50;12.75;;;24.80;47.00;;;;;;5047138;28;20111;-69
2022/06/02 11:55:33;;;;;;;;;;;24.80;47.70;;;;;;5049944;28;20079;-70
2022/06/02 11:58:33;;;;;;;45.72;11.98;;;24.70;48.00;;;;;;5066969;28;19956;-70
2022/06/02 12:01:23;;;;;;;46.22;11.30;;;24.70;48.40;;;;;;5058863;28;20108;-69
2022/06/02 12:03:55;;;;;;;41.97;10.57;;;24.70;48.70;;;;;;5049523;28;20523;-69
2022/06/02 12:06:36;;;;;;;39.80;10.18;;;24.70;48.80;;;;;;5049949;28;20512;-69
2022/06/02 12:09:21;;;;;;;40.28;11.38;;;24.80;48.90;;;;;;5050551;28;20557;-69
2022/06/02 12:12:09;;;;;;;31.73;9.35;;;24.70;49.50;;;;;;5049192;28;20080;-70
2022/06/02 12:15:03;;;;;;;36.88;9.80;;;24.70;49.90;;;;;;5048737;28;20080;-69
2022/06/02 12:17:49;;;;;;;42.00;10.13;;;24.60;50.20;;;;;;5051036;28;20163;-69
2022/06/02 12:21:00;;;;;;;39.10;9.30;;;24.60;50.10;;;;;;5048370;28;20106;-69
2022/06/02 12:23:50;;;;;;;30.65;9.30;;;24.50;50.10;;;;;;5049402;28;20589;-69
2022/06/02 12:26:29;;;;;;;40.00;7.20;;;24.60;50.10;;;;;;5049589;28;20077;-69
2022/06/02 12:29:17;;;;;;;32.63;8.30;;;24.60;50.00;;;;;;5049475;28;20193;-69
2022/06/02 12:32:02;;;;;;;26.95;6.97;;;24.60;50.00;;;;;;5049944;28;20084;-69
2022/06/02 12:34:57;;;;;;;37.97;7.32;;;24.60;49.50;;;;;;5065282;28;20130;-69
2022/06/02 12:37:51;;;;;;;36.80;7.57;;;24.60;49.40;;;;;;4997540;28;20463;-69
2022/06/02 12:41:01;;;;;;;34.83;7.30;;;24.60;49.10;;;;;;5050376;28;20088;-69
2022/06/02 12:43:59;;;;;;;31.48;7.38;;;24.70;49.30;;;;;;5052119;28;20096;-69
2022/06/02 12:46:55;;;;;;;26.42;6.75;;;24.70;49.20;;;;;;5065706;28;20083;-70
2022/06/02 12:49:43;;;;;;;35.72;6.55;;;24.60;49.10;;;;;;5043642;28;20126;-70
2022/06/02 12:52:46;;;;;;;27.63;6.50;;;24.60;48.90;;;;;;5048312;28;20541;-69
2022/06/02 12:55:54;;;;;;;38.42;6.45;;;24.60;48.90;;;;;;5049457;28;20076;-69
2022/06/02 12:59:05;;;;;;;30.40;7.32;;;24.70;49.10;;;;;;5053155;28;20495;-69
2022/06/02 13:01:50;;;;;;;49.80;7.63;;;24.70;49.40;;;;;;5050160;28;20449;-69
2022/06/02 13:04:55;;;;;;;39.35;8.13;;;24.80;49.20;;;;;;5050523;28;20518;-69
2022/06/02 13:07:46;;;;;;;39.05;8.63;;;24.70;49.20;;;;;;5049176;28;20577;-71
2022/06/02 13:10:51;;;;;;;47.83;8.77;;;24.70;49.00;;;;;;5048792;28;20084;-70
2022/06/02 13:13:53;;;;;;;54.78;9.15;;;24.70;49.00;;;;;;5047223;28;20545;-70
2022/06/02 13:16:32;;;;;;;46.58;9.43;;;24.70;49.10;;;;;;5013510;28;20250;-69
2022/06/02 13:19:11;;;;;;;55.97;9.25;;;24.70;49.00;;;;;;5027928;28;20127;-70
2022/06/02 13:22:05;;;;;;;47.13;9.93;;;24.70;49.00;;;;;;5013281;28;20649;-69
2022/06/02 13:25:00;;;;;;;48.72;9.80;;;24.70;49.20;;;;;;5030253;28;20590;-68
2022/06/02 13:28:03;;;;;;;41.25;9.30;;;24.70;48.70;;;;;;5027640;28;20069;-69
2022/06/02 13:30:49;;;;;;;37.65;8.90;;;24.80;48.50;;;;;;5026946;28;20107;-69
2022/06/02 13:33:46;;;;;;;77.22;10.15;;;24.80;48.30;;;;;;5026247;28;20171;-71
2022/06/02 13:36:50;;;;;;;54.33;8.05;;;24.90;48.20;;;;;;5026665;28;20095;-71
2022/06/02 13:39:44;;;;;;;57.33;8.48;;;24.90;48.40;;;;;;4971708;28;20093;-70
2022/06/02 13:42:38;;;;;;;45.17;8.30;;;25.00;48.10;;;;;;4986454;28;20092;-71
2022/06/02 13:45:32;;;;;;;44.25;7.75;;;25.10;47.60;;;;;;4987527;28;20184;-70
2022/06/02 13:48:25;;;;;;;41.70;6.75;;;25.10;47.40;;;;;;5003285;28;20093;-69
2022/06/02 13:51:26;;;;;;;53.20;7.55;;;25.20;47.60;;;;;;5006926;28;20419;-69
2022/06/02 13:59:59;;;;;;;34.63;5.70;;;25.40;47.90;;;;;;5005757;28;20105;-69
2022/06/02 14:02:55;;;;;;;38.50;6.50;;;25.50;47.90;;;;;;5004213;28;20077;-69
2022/06/02 14:05:30;;;;;;;43.85;6.35;;;25.60;48.20;;;;;;5005383;28;20528;-69
2022/06/02 14:08:14;;;;;;;35.42;5.68;;;25.60;48.00;;;;;;5006825;28;20166;-69
2022/06/02 14:11:32;;;;;;;38.38;4.85;;;25.70;48.10;;;;;;5032415;28;20080;-69
2022/06/02 14:14:10;;;;;;;41.07;6.00;;;25.80;48.20;;;;;;5040836;28;20152;-69
2022/06/02 14:16:36;;;;;;;33.20;5.68;;;25.80;48.50;;;;;;5063485;28;20177;-69
2022/06/02 14:19:25;;;;;;;29.73;5.30;;;25.90;48.80;;;;;;5047721;28;20087;-70
2022/06/02 14:22:19;;;;;;;35.00;6.10;;;26.00;48.60;;;;;;5061463;28;20088;-71
2022/06/02 14:25:07;;;;;;;30.85;5.55;;;26.20;48.50;;;;;;5048128;28;20129;-70
2022/06/02 14:28:03;;;;;;;42.42;6.60;;;26.30;47.90;;;;;;5047140;28;20529;-68
2022/06/02 14:30:49;;;;;;;40.30;7.10;;;26.50;47.60;;;;;;5047287;28;20600;-69
2022/06/02 14:33:22;;;;;;;34.25;6.25;;;26.70;47.30;;;;;;5047945;28;20095;-69
2022/06/02 14:35:57;;;;;;;38.53;6.22;;;26.80;47.30;;;;;;5048167;28;20103;-69
2022/06/02 14:38:28;;;;;;;29.10;5.85;;;27.00;46.70;;;;;;5047885;28;20489;-69
2022/06/02 14:41:11;;;;;;;32.55;5.35;;;27.10;46.80;;;;;;5063356;28;20094;-70
2022/06/02 14:44:14;;;;;;;44.63;6.00;;;27.30;46.20;;;;;;5046627;28;20165;-70